Time;durP1;ratioP1;P1;durP2;ratioP2;P2;SDS_P1;SDS_P2;PMS_P1;PMS_P2;Temp;Humidity;BMP_temperature;BMP_pressure;BME280_temperature;BME280_humidity;BME280_pressure;Samples;Min_cycle;Max_cycle;Signal;HPM_P1;HPM_P2
2020/12/25 00:01:46;;;;;;;3.92;1.23;;;;;;;3.08;100.00;103587.22;5091461;28;20132;-65
2020/12/25 00:04:12;;;;;;;4.40;1.20;;;;;;;3.08;100.00;103579.13;5091793;28;20143;-66
2020/12/25 00:06:38;;;;;;;2.95;0.90;;;;;;;3.07;100.00;103572.00;5091536;28;20193;-66
2020/12/25 00:09:05;;;;;;;5.97;1.10;;;;;;;3.08;100.00;103587.22;5091315;28;20043;-66
2020/12/25 00:11:35;;;;;;;5.38;1.10;;;;;;;3.07;100.00;103596.31;5091416;28;20040;-65
2020/12/25 00:14:02;;;;;;;6.38;1.20;;;;;;;3.08;100.00;103603.44;5091332;28;20040;-66
2020/12/25 00:16:28;;;;;;;4.20;2.22;;;;;;;3.07;100.00;103607.13;5091760;28;20128;-66
2020/12/25 00:18:54;;;;;;;6.32;1.25;;;;;;;3.06;100.00;103597.31;5091413;28;20044;-65
2020/12/25 00:21:20;;;;;;;2.33;1.25;;;;;;;3.03;100.00;103597.56;5091581;28;20386;-65
2020/12/25 00:23:46;;;;;;;3.65;1.13;;;;;;;3.01;100.00;103592.28;5091136;28;20035;-64
2020/12/25 00:26:28;;;;;;;6.18;1.20;;;;;;;2.98;100.00;103603.34;5091234;28;20043;-66
2020/12/25 00:28:57;;;;;;;7.30;1.45;;;;;;;2.97;100.00;103616.97;5090415;28;20553;-66
2020/12/25 00:31:26;;;;;;;6.65;1.80;;;;;;;2.94;100.00;103601.00;5091112;28;20115;-65
2020/12/25 00:33:52;;;;;;;4.72;1.70;;;;;;;2.91;100.00;103604.81;5091093;28;20063;-66
2020/12/25 00:36:30;;;;;;;4.22;1.35;;;;;;;2.91;100.00;103601.25;5091122;28;20577;-65
2020/12/25 00:38:57;;;;;;;12.52;1.20;;;;;;;2.91;100.00;103603.94;5089593;28;20440;-65
2020/12/25 00:41:22;;;;;;;6.75;1.40;;;;;;;2.89;100.00;103604.06;5090914;28;20032;-65
2020/12/25 00:43:48;;;;;;;3.70;1.52;;;;;;;2.89;100.00;103605.91;5091070;28;20040;-65
2020/12/25 00:46:14;;;;;;;8.20;1.60;;;;;;;2.88;100.00;103605.06;5091045;28;20027;-67
2020/12/25 00:48:40;;;;;;;3.90;0.98;;;;;;;2.88;100.00;103601.50;5090810;28;20071;-65
2020/12/25 00:51:12;;;;;;;3.33;1.27;;;;;;;2.89;100.00;103614.00;5090900;28;20040;-66
2020/12/25 00:53:38;;;;;;;5.85;1.20;;;;;;;2.89;100.00;103609.47;5090974;28;20040;-65
2020/12/25 00:56:03;;;;;;;5.25;1.10;;;;;;;2.90;100.00;103615.72;5123617;28;20127;-65
2020/12/25 00:58:29;;;;;;;6.25;1.20;;;;;;;2.89;100.00;103608.63;5090765;28;20036;-65
2020/12/25 01:00:54;;;;;;;7.28;1.40;;;;;;;2.88;100.00;103609.59;5089586;28;20036;-66
2020/12/25 01:03:20;;;;;;;6.75;1.52;;;;;;;2.85;100.00;103607.16;5090734;28;20412;-65
2020/12/25 01:05:45;;;;;;;4.03;1.35;;;;;;;2.84;100.00;103602.72;5090738;28;20490;-65
2020/12/25 01:08:11;;;;;;;4.40;1.10;;;;;;;2.83;100.00;103609.13;5090650;28;20050;-65
2020/12/25 01:10:36;;;;;;;7.25;2.58;;;;;;;2.82;100.00;103602.00;5090493;28;20056;-66
2020/12/25 01:13:02;;;;;;;5.82;1.30;;;;;;;2.82;100.00;103607.41;5090662;28;20638;-65
2020/12/25 01:15:27;;;;;;;5.13;1.20;;;;;;;2.80;100.00;103603.97;5090767;28;20040;-66
2020/12/25 01:17:53;;;;;;;9.20;1.40;;;;;;;2.79;100.00;103602.25;5090627;28;20040;-65
2020/12/25 01:20:18;;;;;;;4.93;1.08;;;;;;;2.77;100.00;103605.03;5090657;28;20410;-65
2020/12/25 01:22:44;;;;;;;8.02;1.30;;;;;;;2.78;100.00;103616.69;5090437;28;20058;-66
2020/12/25 01:25:10;;;;;;;7.25;1.50;;;;;;;2.79;100.00;103623.84;5090563;28;20508;-66
2020/12/25 01:27:35;;;;;;;8.07;1.50;;;;;;;2.79;100.00;103629.25;5090573;28;20143;-65
2020/12/25 01:30:01;;;;;;;6.43;1.40;;;;;;;2.80;100.00;103620.16;5090532;28;20056;-66
2020/12/25 01:32:26;;;;;;;9.23;0.90;;;;;;;2.81;100.00;103621.88;5090495;28;20525;-66
2020/12/25 01:34:52;;;;;;;4.63;1.05;;;;;;;2.82;100.00;103619.06;5090674;28;20040;-65
2020/12/25 01:37:17;;;;;;;6.03;1.13;;;;;;;2.84;100.00;103614.38;5090417;28;20151;-65
2020/12/25 01:39:43;;;;;;;5.43;1.10;;;;;;;2.85;100.00;103623.34;5091917;28;20392;-65
2020/12/25 01:42:08;;;;;;;9.63;2.33;;;;;;;2.85;100.00;103626.03;5094219;28;20032;-65
2020/12/25 01:44:34;;;;;;;5.78;1.23;;;;;;;2.84;100.00;103627.03;5094449;28;20044;-65
2020/12/25 01:47:01;;;;;;;6.93;1.10;;;;;;;2.83;100.00;103633.41;5094100;28;20032;-66
2020/12/25 01:49:27;;;;;;;6.07;1.40;;;;;;;2.81;100.00;103638.94;5094061;28;20047;-66
2020/12/25 01:51:52;;;;;;;4.57;1.27;;;;;;;2.80;100.00;103636.38;5094100;28;20029;-66
2020/12/25 01:54:18;;;;;;;4.38;1.00;;;;;;;2.78;100.00;103624.81;5093812;28;20134;-65
2020/12/25 01:56:44;;;;;;;6.20;1.30;;;;;;;2.76;100.00;103634.88;5093836;28;20054;-66
2020/12/25 01:59:10;;;;;;;5.82;0.98;;;;;;;2.72;100.00;103640.50;5092919;28;20075;-65
2020/12/25 02:01:35;;;;;;;2.95;0.82;;;;;;;2.67;100.00;103637.31;5093859;28;20032;-65
2020/12/25 02:04:01;;;;;;;6.22;1.25;;;;;;;2.63;100.00;103641.25;5093772;28;20047;-64
2020/12/25 02:06:36;;;;;;;5.55;0.93;;;;;;;2.60;100.00;103651.41;5093831;28;20111;-65
2020/12/25 02:09:02;;;;;;;6.40;1.42;;;;;;;2.54;100.00;103639.28;5093634;28;20142;-65
2020/12/25 02:11:28;;;;;;;5.35;1.10;;;;;;;2.49;100.00;103630.69;5093576;28;20097;-66
2020/12/25 02:13:54;;;;;;;5.57;1.38;;;;;;;2.44;100.00;103643.69;5093516;28;20040;-66
2020/12/25 02:16:19;;;;;;;8.25;1.65;;;;;;;2.43;100.00;103644.66;5093671;28;20050;-65
2020/12/25 02:18:45;;;;;;;3.92;1.08;;;;;;;2.42;100.00;103653.72;5093349;28;20100;-66
2020/12/25 02:21:11;;;;;;;7.43;1.45;;;;;;;2.38;100.00;103652.25;5093898;28;20044;-64
2020/12/25 02:23:36;;;;;;;8.25;1.50;;;;;;;2.39;100.00;103659.34;5093476;28;20039;-65
2020/12/25 02:26:02;;;;;;;8.10;1.40;;;;;;;2.37;100.00;103656.78;5093527;28;20131;-66
2020/12/25 02:28:27;;;;;;;6.70;2.45;;;;;;;2.39;100.00;103664.75;5093094;28;20054;-66
2020/12/25 02:30:53;;;;;;;4.18;1.50;;;;;;;2.37;100.00;103672.97;5093448;28;20040;-66
2020/12/25 02:33:19;;;;;;;3.85;1.20;;;;;;;2.35;100.00;103679.44;5093244;28;20039;-66
2020/12/25 02:35:44;;;;;;;3.60;1.10;;;;;;;2.33;100.00;103676.88;5093212;28;20036;-65
2020/12/25 02:38:10;;;;;;;5.10;1.30;;;;;;;2.32;100.00;103674.31;5092984;28;20036;-66
2020/12/25 02:40:35;;;;;;;3.88;1.20;;;;;;;2.30;100.00;103670.88;5093248;28;20375;-66
2020/12/25 02:43:01;;;;;;;5.63;1.00;;;;;;;2.28;100.00;103673.69;5092945;28;20398;-65
2020/12/25 02:45:26;;;;;;;4.47;1.20;;;;;;;2.25;100.00;103673.91;5093069;28;20047;-67
2020/12/25 02:47:52;;;;;;;5.45;1.13;;;;;;;2.23;100.00;103675.84;5092950;28;20431;-65
2020/12/25 02:50:17;;;;;;;5.63;1.17;;;;;;;2.21;100.00;103679.66;5092782;28;20498;-65
2020/12/25 02:52:43;;;;;;;7.72;1.38;;;;;;;2.18;100.00;103682.59;5092238;28;20473;-65
2020/12/25 02:55:09;;;;;;;5.15;1.20;;;;;;;2.15;100.00;103677.44;5092884;28;20047;-65
2020/12/25 02:57:35;;;;;;;3.55;1.25;;;;;;;2.11;100.00;103672.28;5092689;28;20040;-66
2020/12/25 03:00:00;;;;;;;4.18;1.10;;;;;;;2.09;100.00;103674.25;5092672;28;20119;-65
2020/12/25 03:02:26;;;;;;;6.50;1.35;;;;;;;2.07;100.00;103659.13;5092710;28;20466;-66
2020/12/25 03:04:51;;;;;;;2.70;0.77;;;;;;;2.06;100.00;103657.41;5093117;28;20470;-64
2020/12/25 03:07:17;;;;;;;7.65;1.20;;;;;;;2.03;100.00;103658.50;5092511;28;20436;-65
2020/12/25 03:09:43;;;;;;;6.60;1.15;;;;;;;2.01;100.00;103659.59;5092338;28;20520;-66
2020/12/25 03:12:08;;;;;;;5.07;1.10;;;;;;;2.00;100.00;103661.44;5091124;28;20402;-65
2020/12/25 03:14:34;;;;;;;5.68;1.10;;;;;;;1.99;100.00;103657.03;5092453;28;20525;-66
2020/12/25 03:17:00;;;;;;;5.07;1.10;;;;;;;1.99;100.00;103646.25;5092300;28;20123;-65
2020/12/25 03:19:26;;;;;;;3.42;1.10;;;;;;;1.98;100.00;103644.53;5092317;28;20089;-66
2020/12/25 03:21:51;;;;;;;2.28;1.15;;;;;;;1.96;100.00;103649.19;5092185;28;20415;-65
2020/12/25 03:24:17;;;;;;;5.22;1.10;;;;;;;1.98;100.00;103644.53;5092243;28;20036;-65
2020/12/25 03:26:43;;;;;;;4.63;1.08;;;;;;;1.99;100.00;103646.25;5092132;28;20059;-65
2020/12/25 03:29:09;;;;;;;4.72;1.38;;;;;;;1.99;100.00;103643.56;5092265;28;20079;-66
2020/12/25 03:31:34;;;;;;;7.53;1.13;;;;;;;1.98;100.00;103640.97;5092247;28;20036;-65
2020/12/25 03:34:00;;;;;;;6.03;1.33;;;;;;;2.00;100.00;103652.50;5092000;28;20089;-65
2020/12/25 03:36:26;;;;;;;5.68;1.23;;;;;;;2.01;100.00;103644.28;5092015;28;20461;-65
2020/12/25 03:38:51;;;;;;;4.05;1.30;;;;;;;2.03;100.00;103647.72;5091950;28;20412;-65
2020/12/25 03:41:17;;;;;;;3.78;1.08;;;;;;;2.03;100.00;103641.47;5091838;28;20043;-64
2020/12/25 03:43:43;;;;;;;5.15;1.48;;;;;;;2.05;100.00;103648.47;5091854;28;20111;-65
2020/12/25 03:46:08;;;;;;;8.13;1.00;;;;;;;2.06;100.00;103647.47;5091909;28;20477;-64
2020/12/25 03:48:34;;;;;;;4.05;1.15;;;;;;;2.07;100.00;103643.81;5091797;28;20565;-65
2020/12/25 03:51:00;;;;;;;3.35;0.80;;;;;;;2.09;100.00;103647.28;5091717;28;20485;-65
2020/12/25 03:53:26;;;;;;;8.10;0.90;;;;;;;2.14;100.00;103643.38;5091699;28;20485;-65
2020/12/25 03:55:51;;;;;;;3.53;0.85;;;;;;;2.18;100.00;103655.63;5091812;28;20089;-65
2020/12/25 03:58:17;;;;;;;4.25;1.15;;;;;;;2.22;100.00;103651.72;5091527;28;20031;-65
2020/12/25 04:00:42;;;;;;;5.10;0.88;;;;;;;2.24;100.00;103644.34;5091528;28;20105;-66
2020/12/25 04:03:08;;;;;;;5.53;1.40;;;;;;;2.27;100.00;103639.59;5091394;28;20040;-65
2020/12/25 04:05:33;;;;;;;4.47;1.00;;;;;;;2.32;100.00;103641.94;5091519;28;20633;-65
2020/12/25 04:07:59;;;;;;;6.40;0.90;;;;;;;2.33;100.00;103639.13;5091285;28;20514;-65
2020/12/25 04:10:24;;;;;;;7.80;1.35;;;;;;;2.38;100.00;103644.16;5091292;28;20059;-65
2020/12/25 04:12:50;;;;;;;2.22;0.65;;;;;;;2.41;100.00;103638.50;5091498;28;20032;-65
2020/12/25 04:15:15;;;;;;;5.65;1.08;;;;;;;2.42;100.00;103638.38;5091375;28;20489;-65
2020/12/25 04:17:41;;;;;;;2.88;0.75;;;;;;;2.46;100.00;103644.44;5091188;28;20043;-64
2020/12/25 04:20:07;;;;;;;2.92;1.00;;;;;;;2.49;100.00;103644.19;5090033;28;20497;-67
2020/12/25 04:22:33;;;;;;;4.78;0.63;;;;;;;2.53;100.00;103651.03;5091064;28;20128;-65
2020/12/25 04:24:58;;;;;;;4.22;0.70;;;;;;;2.58;100.00;103654.22;5091214;28;20473;-67
2020/12/25 04:27:24;;;;;;;2.90;0.80;;;;;;;2.61;100.00;103651.31;5091212;28;20050;-64
2020/12/25 04:29:49;;;;;;;1.65;0.70;;;;;;;2.64;100.00;103642.97;5091178;28;20474;-64
2020/12/25 04:32:15;;;;;;;5.00;0.63;;;;;;;2.69;100.00;103650.69;5091082;28;20047;-65
2020/12/25 04:34:41;;;;;;;3.70;0.70;;;;;;;2.71;100.00;103649.59;5091079;28;20039;-64
2020/12/25 04:37:06;;;;;;;6.03;0.80;;;;;;;2.74;100.00;103637.69;5091080;28;20047;-67
2020/12/25 04:39:32;;;;;;;3.63;0.80;;;;;;;2.77;100.00;103641.97;5090962;28;20178;-64
2020/12/25 04:41:57;;;;;;;5.03;1.40;;;;;;;2.79;100.00;103634.66;5090894;28;20036;-64
2020/12/25 04:44:23;;;;;;;3.05;0.70;;;;;;;2.79;100.00;103640.03;5091019;28;20097;-64
2020/12/25 04:46:52;;;;;;;3.53;0.68;;;;;;;2.79;100.00;103634.66;5090954;28;20035;-65
2020/12/25 04:49:19;;;;;;;3.10;0.50;;;;;;;2.79;100.00;103634.66;5090781;28;20044;-64
2020/12/25 04:51:45;;;;;;;4.68;0.88;;;;;;;2.80;100.00;103631.81;5090916;28;20036;-64
2020/12/25 04:54:10;;;;;;;7.82;0.93;;;;;;;2.80;100.00;103637.22;5091087;28;20452;-64
2020/12/25 04:56:36;;;;;;;5.63;0.98;;;;;;;2.82;100.00;103646.06;5090861;28;20077;-65
2020/12/25 04:59:02;;;;;;;5.75;0.70;;;;;;;2.84;100.00;103637.81;5090690;28;20028;-65
2020/12/25 05:01:28;;;;;;;3.53;0.55;;;;;;;2.87;100.00;103648.38;5090854;28;20097;-65
2020/12/25 05:03:53;;;;;;;3.38;0.55;;;;;;;2.89;100.00;103641.88;5090682;28;20097;-65
2020/12/25 05:06:19;;;;;;;5.85;0.70;;;;;;;2.90;100.00;103650.81;5090806;28;20036;-65
2020/12/25 05:08:48;;;;;;;4.22;1.00;;;;;;;2.93;100.00;103650.56;5090671;28;20036;-65
2020/12/25 05:11:19;;;;;;;4.75;0.65;;;;;;;2.94;100.00;103660.38;5090559;28;20126;-64
2020/12/25 05:13:50;;;;;;;3.00;1.25;;;;;;;2.93;100.00;103659.53;5090761;28;20036;-64
2020/12/25 05:16:16;;;;;;;2.22;0.65;;;;;;;2.93;100.00;103669.47;5094893;28;20066;-64
2020/12/25 05:18:44;;;;;;;2.40;0.50;;;;;;;2.92;100.00;103662.34;5093145;28;20444;-64
2020/12/25 05:21:12;;;;;;;2.88;0.55;;;;;;;2.91;100.00;103671.44;5094609;28;20533;-65
2020/12/25 05:23:39;;;;;;;3.45;0.73;;;;;;;2.92;100.00;103665.06;5094560;28;20064;-64
2020/12/25 05:26:07;;;;;;;3.53;1.05;;;;;;;2.91;100.00;103666.03;5094635;28;20150;-65
2020/12/25 05:28:42;;;;;;;5.82;0.70;;;;;;;2.93;100.00;103670.31;5094446;28;20032;-64
2020/12/25 05:31:09;;;;;;;3.78;1.02;;;;;;;2.96;100.00;103663.84;5094419;28;20040;-65
2020/12/25 05:33:36;;;;;;;6.03;0.70;;;;;;;2.99;100.00;103669.00;5094474;28;20127;-65
2020/12/25 05:36:05;;;;;;;2.95;0.43;;;;;;;3.02;100.00;103668.75;5093072;28;20529;-64
2020/12/25 05:38:30;;;;;;;1.70;0.60;;;;;;;3.06;100.00;103664.81;5094158;28;20036;-65
2020/12/25 05:40:59;;;;;;;3.55;1.15;;;;;;;3.09;100.00;103669.09;5094372;28;20501;-64
2020/12/25 05:43:26;;;;;;;6.80;1.00;;;;;;;3.12;100.00;103668.84;5094239;28;20044;-64
2020/12/25 05:45:52;;;;;;;9.30;0.85;;;;;;;3.13;100.00;103674.16;5094016;28;20062;-66
2020/12/25 05:48:17;;;;;;;3.83;0.50;;;;;;;3.16;100.00;103673.91;5094058;28;20040;-65
2020/12/25 05:50:44;;;;;;;7.25;0.68;;;;;;;3.18;100.00;103671.06;5094160;28;20043;-65
2020/12/25 05:53:10;;;;;;;3.10;0.60;;;;;;;3.19;100.00;103680.91;5094058;28;20119;-64
2020/12/25 05:55:37;;;;;;;1.77;0.50;;;;;;;3.19;100.00;103697.09;5093986;28;20119;-64
2020/12/25 05:58:04;;;;;;;7.22;0.82;;;;;;;3.19;100.00;103687.16;5093872;28;20093;-65
2020/12/25 06:00:31;;;;;;;4.72;0.63;;;;;;;3.21;100.00;103689.72;5093887;28;20044;-65
2020/12/25 06:02:57;;;;;;;2.70;0.60;;;;;;;3.22;100.00;103688.75;5093753;28;20069;-64
2020/12/25 06:05:24;;;;;;;4.88;0.75;;;;;;;3.23;100.00;103704.81;5093816;28;20039;-65
2020/12/25 06:07:54;;;;;;;8.80;0.88;;;;;;;3.23;100.00;103694.03;5093750;28;20036;-65
2020/12/25 06:10:25;;;;;;;7.13;0.82;;;;;;;3.22;100.00;103692.31;5093630;28;20454;-65
2020/12/25 06:12:53;;;;;;;4.10;0.90;;;;;;;3.23;100.00;103694.03;5093523;28;20468;-65
2020/12/25 06:15:33;;;;;;;4.75;1.67;;;;;;;3.25;100.00;103686.66;5093684;28;20032;-65
2020/12/25 06:18:32;;;;;;;1.30;0.52;;;;;;;3.26;100.00;103682.97;5093540;28;20496;-64
2020/12/25 06:21:27;;;;;;;6.32;0.88;;;;;;;3.26;100.00;103691.06;5093489;28;20046;-65
2020/12/25 06:23:53;;;;;;;6.28;0.68;;;;;;;3.28;100.00;103686.38;5092131;28;20048;-64
2020/12/25 06:26:19;;;;;;;11.55;2.05;;;;;;;3.30;100.00;103687.16;5092157;28;20046;-65
2020/12/25 06:28:48;;;;;;;6.78;0.68;;;;;;;3.32;100.00;103687.88;5093261;28;20040;-66
2020/12/25 06:31:47;;;;;;;7.65;1.55;;;;;;;3.32;100.00;103687.88;5093394;28;20097;-65
2020/12/25 06:34:14;;;;;;;8.32;1.15;;;;;;;3.32;100.00;103666.28;5093239;28;20111;-64
2020/12/25 06:36:44;;;;;;;6.72;1.65;;;;;;;3.31;100.00;103669.97;5093139;28;20054;-64
2020/12/25 06:39:13;;;;;;;5.60;0.90;;;;;;;3.31;100.00;103669.97;5093089;28;20435;-65
2020/12/25 06:41:40;;;;;;;3.15;0.90;;;;;;;3.32;100.00;103665.41;5093131;28;20379;-64
2020/12/25 06:44:12;;;;;;;4.43;0.80;;;;;;;3.32;100.00;103673.53;5092978;28;20355;-65
2020/12/25 06:46:49;;;;;;;2.95;0.75;;;;;;;3.31;100.00;103680.78;5093117;28;20043;-65
2020/12/25 06:49:16;;;;;;;4.03;1.00;;;;;;;3.30;100.00;103673.66;5093101;28;20036;-64
2020/12/25 06:51:43;;;;;;;5.25;1.00;;;;;;;3.29;100.00;103682.69;5093285;28;20032;-63
2020/12/25 06:54:20;;;;;;;7.30;1.35;;;;;;;3.29;100.00;103677.31;5092826;28;20032;-64
2020/12/25 06:56:57;;;;;;;7.40;1.33;;;;;;;3.28;100.00;103681.00;5092728;28;20504;-65
2020/12/25 06:59:23;;;;;;;5.00;1.20;;;;;;;3.26;100.00;103676.69;5092790;28;20043;-65
2020/12/25 07:01:52;;;;;;;4.53;0.95;;;;;;;3.26;100.00;103684.81;5091206;28;20541;-64
2020/12/25 07:04:30;;;;;;;3.88;0.90;;;;;;;3.27;100.00;103686.50;5092648;28;20040;-66
2020/12/25 07:07:02;;;;;;;3.80;0.70;;;;;;;3.27;100.00;103687.38;5092579;28;20085;-65
2020/12/25 07:09:40;;;;;;;7.88;1.00;;;;;;;3.27;100.00;103690.06;5092679;28;20119;-63
2020/12/25 07:12:18;;;;;;;3.65;0.80;;;;;;;3.25;100.00;103697.44;5092357;28;20347;-64
2020/12/25 07:14:44;;;;;;;2.97;1.02;;;;;;;3.24;100.00;103701.13;5092575;28;20089;-64
2020/12/25 07:17:10;;;;;;;6.28;1.00;;;;;;;3.25;100.00;103697.44;5092377;28;20036;-65
2020/12/25 07:19:36;;;;;;;3.85;1.20;;;;;;;3.24;100.00;103701.13;5092358;28;20044;-65
2020/12/25 07:22:07;;;;;;;4.32;0.90;;;;;;;3.24;100.00;103706.53;5092270;28;20050;-65
2020/12/25 07:24:42;;;;;;;6.93;1.05;;;;;;;3.23;100.00;103710.22;5092423;28;20500;-64
2020/12/25 07:27:09;;;;;;;4.47;1.20;;;;;;;3.24;100.00;103714.66;5092190;28;20040;-65
2020/12/25 07:29:35;;;;;;;6.07;1.23;;;;;;;3.24;100.00;103722.75;5092247;28;20768;-65
2020/12/25 07:32:01;;;;;;;8.05;1.70;;;;;;;3.26;100.00;103720.78;5092183;28;20047;-64
2020/12/25 07:34:27;;;;;;;9.38;1.85;;;;;;;3.29;100.00;103720.53;5092256;28;20040;-64
2020/12/25 07:36:55;;;;;;;4.40;1.17;;;;;;;3.32;100.00;103723.00;5091695;28;20040;-65
2020/12/25 07:39:21;;;;;;;4.25;0.80;;;;;;;3.36;100.00;103726.31;5092008;28;20039;-65
2020/12/25 07:41:47;;;;;;;7.53;0.80;;;;;;;3.37;100.00;103721.75;5091831;28;20131;-65
2020/12/25 07:44:13;;;;;;;4.82;1.05;;;;;;;3.37;100.00;103721.75;5091934;28;20039;-64
2020/12/25 07:46:39;;;;;;;6.72;1.45;;;;;;;3.41;100.00;103723.22;5091837;28;20089;-65
2020/12/25 07:49:06;;;;;;;5.28;1.30;;;;;;;3.40;100.00;103710.69;5091938;28;20043;-64
2020/12/25 07:51:33;;;;;;;9.48;1.02;;;;;;;3.39;100.00;103719.78;5091758;28;20024;-65
2020/12/25 07:54:00;;;;;;;5.28;0.80;;;;;;;3.39;100.00;103719.78;5091778;28;20039;-65
2020/12/25 07:56:29;;;;;;;9.63;0.93;;;;;;;3.38;100.00;103724.34;5091776;28;20110;-65
2020/12/25 07:58:55;;;;;;;5.93;1.20;;;;;;;3.42;100.00;103730.34;5091468;28;20398;-64
2020/12/25 08:01:23;;;;;;;7.03;1.40;;;;;;;3.44;100.00;103722.97;5091546;28;20417;-65
2020/12/25 08:03:49;;;;;;;4.53;1.00;;;;;;;3.47;100.00;103728.13;5091565;28;20036;-65
2020/12/25 08:06:17;;;;;;;6.00;0.90;;;;;;;3.48;100.00;103724.47;5091470;28;20044;-65
2020/12/25 08:08:48;;;;;;;6.18;0.93;;;;;;;3.49;100.00;103721.63;5091360;28;20077;-65
2020/12/25 08:11:16;;;;;;;5.97;1.00;;;;;;;3.51;100.00;103730.47;5091353;28;20387;-65
2020/12/25 08:13:44;;;;;;;4.53;0.80;;;;;;;3.54;100.00;103732.06;5091328;28;20517;-65
2020/12/25 08:16:10;;;;;;;6.72;0.80;;;;;;;3.56;100.00;103727.38;5091323;28;20096;-65
2020/12/25 08:18:37;;;;;;;6.07;0.80;;;;;;;3.60;100.00;103734.25;5091297;28;20044;-65
2020/12/25 08:21:03;;;;;;;4.35;0.80;;;;;;;3.61;100.00;103725.16;5091377;28;20031;-63
2020/12/25 08:23:36;;;;;;;6.05;0.90;;;;;;;3.62;100.00;103733.16;5091190;28;20048;-64
2020/12/25 08:26:06;;;;;;;3.28;0.65;;;;;;;3.63;100.00;103734.00;5091272;28;20070;-64
2020/12/25 08:28:33;;;;;;;4.15;0.70;;;;;;;3.64;100.00;103735.72;5091028;28;20055;-65
2020/12/25 08:31:13;;;;;;;3.22;0.50;;;;;;;3.67;100.00;103734.63;5091161;28;20036;-65
2020/12/25 08:33:53;;;;;;;7.00;0.77;;;;;;;3.68;100.00;103720.13;5091293;28;20115;-65
2020/12/25 08:36:18;;;;;;;4.47;1.02;;;;;;;3.70;100.00;103724.41;5091146;28;20043;-64
2020/12/25 08:38:44;;;;;;;6.10;0.75;;;;;;;3.71;100.00;103726.13;5090912;28;20382;-65
2020/12/25 08:41:10;;;;;;;8.25;1.00;;;;;;;3.73;100.00;103729.56;5090923;28;20093;-65
2020/12/25 08:43:36;;;;;;;4.40;0.93;;;;;;;3.73;100.00;103745.78;5089760;28;20047;-64
2020/12/25 08:46:03;;;;;;;4.93;1.35;;;;;;;3.75;100.00;103754.63;5091017;28;20036;-64
2020/12/25 08:48:31;;;;;;;6.82;1.40;;;;;;;3.78;100.00;103748.09;5091737;28;20054;-64
2020/12/25 08:51:11;;;;;;;4.05;1.20;;;;;;;3.78;100.00;103751.66;5097554;28;20081;-64
2020/12/25 08:53:37;;;;;;;4.43;1.25;;;;;;;3.81;100.00;103750.56;5097611;28;20040;-65
2020/12/25 08:56:14;;;;;;;5.65;1.25;;;;;;;3.82;100.00;103755.88;5097629;28;20051;-65
2020/12/25 08:58:40;;;;;;;5.03;1.08;;;;;;;3.83;100.00;103746.75;5097475;28;20039;-65
2020/12/25 09:01:05;;;;;;;3.13;1.00;;;;;;;3.84;100.00;103745.78;5097609;28;20093;-64
2020/12/25 09:03:39;;;;;;;5.30;1.17;;;;;;;3.84;100.00;103737.66;5097632;28;20595;-65
2020/12/25 09:06:05;;;;;;;6.83;1.80;;;;;;;3.86;100.00;103737.53;5097606;28;20122;-65
2020/12/25 09:08:31;;;;;;;6.30;1.30;;;;;;;3.87;100.00;103732.00;5097517;28;20111;-64
2020/12/25 09:10:56;;;;;;;6.93;1.13;;;;;;;3.91;100.00;103733.44;5097511;28;20528;-65
2020/12/25 09:13:22;;;;;;;2.88;0.82;;;;;;;3.94;100.00;103730.50;5097423;28;20036;-65
2020/12/25 09:15:47;;;;;;;5.03;0.80;;;;;;;3.98;100.00;103732.94;5097523;28;20067;-65
2020/12/25 09:18:13;;;;;;;4.35;1.40;;;;;;;4.01;100.00;103728.16;5097370;28;20040;-64
2020/12/25 09:20:38;;;;;;;9.82;1.98;;;;;;;4.07;100.00;103732.19;5097357;28;20470;-65
2020/12/25 09:23:04;;;;;;;7.68;1.70;;;;;;;4.10;100.00;103726.50;5097250;28;20044;-64
2020/12/25 09:25:29;;;;;;;5.32;1.95;;;;;;;4.11;100.00;103718.25;5097466;28;20036;-64
2020/12/25 09:27:55;;;;;;;4.63;1.30;;;;;;;4.17;100.00;103719.59;5097276;28;20046;-65
2020/12/25 09:30:21;;;;;;;5.10;1.15;;;;;;;4.19;100.00;103725.75;5097313;28;20043;-65
2020/12/25 09:32:46;;;;;;;6.38;1.65;;;;;;;4.23;100.00;103710.97;5097281;28;20040;-65
2020/12/25 09:35:12;;;;;;;4.47;1.25;;;;;;;4.27;100.00;103720.53;5097261;28;20047;-64
2020/12/25 09:37:37;;;;;;;6.68;1.80;;;;;;;4.30;100.00;103722.97;5097139;28;20035;-65
2020/12/25 09:40:03;;;;;;;7.50;1.10;;;;;;;4.33;100.00;103721.84;5096046;28;20036;-64
2020/12/25 09:42:28;;;;;;;4.03;1.52;;;;;;;4.35;100.00;103723.47;5097141;28;20032;-64
2020/12/25 09:44:54;;;;;;;6.75;1.60;;;;;;;4.39;100.00;103733.03;5097680;28;20062;-65
2020/12/25 09:47:20;;;;;;;6.63;2.05;;;;;;;4.43;100.00;103737.19;5097540;28;20081;-65
2020/12/25 09:49:45;;;;;;;6.13;1.50;;;;;;;4.47;100.00;103738.63;5097146;28;20039;-64
2020/12/25 09:52:11;;;;;;;6.20;1.42;;;;;;;4.51;100.00;103742.81;5097206;28;20449;-65
2020/12/25 09:54:37;;;;;;;5.38;1.50;;;;;;;4.54;100.00;103747.97;5097096;28;20458;-65
2020/12/25 09:57:03;;;;;;;4.32;1.58;;;;;;;4.58;100.00;103742.28;5097067;28;20036;-65
2020/12/25 09:59:30;;;;;;;5.35;1.73;;;;;;;4.59;100.00;103739.44;5097125;28;20092;-64
2020/12/25 10:01:55;;;;;;;8.05;2.45;;;;;;;4.61;100.00;103745.56;5092419;28;20036;-65
2020/12/25 10:04:21;;;;;;;4.50;1.23;;;;;;;4.65;100.00;103744.31;5093712;28;20115;-65
2020/12/25 10:06:47;;;;;;;6.65;1.80;;;;;;;4.70;100.00;103743.94;5094035;28;20409;-64
2020/12/25 10:09:12;;;;;;;7.22;1.73;;;;;;;4.73;100.00;103743.66;5094014;28;20036;-65
2020/12/25 10:11:38;;;;;;;7.03;1.63;;;;;;;4.77;100.00;103743.25;5093458;28;20063;-65
2020/12/25 10:14:04;;;;;;;4.68;1.30;;;;;;;4.80;100.00;103742.13;5093687;28;20470;-65
2020/12/25 10:16:29;;;;;;;7.15;1.45;;;;;;;4.84;100.00;103738.16;5093677;28;20036;-65
2020/12/25 10:18:55;;;;;;;5.97;0.93;;;;;;;4.89;100.00;103740.50;5093356;28;20086;-66
2020/12/25 10:21:20;;;;;;;6.35;1.50;;;;;;;4.95;100.00;103729.13;5093450;28;20034;-65
2020/12/25 10:23:46;;;;;;;4.82;1.25;;;;;;;4.99;100.00;103728.69;5093486;28;20042;-65
2020/12/25 10:26:11;;;;;;;7.47;1.38;;;;;;;5.00;100.00;103730.41;5093493;28;20039;-65
2020/12/25 10:28:39;;;;;;;5.95;1.13;;;;;;;5.03;100.00;103732.00;5093227;28;20044;-65
2020/12/25 10:31:05;;;;;;;8.18;1.48;;;;;;;5.07;100.00;103734.31;5093401;28;20123;-64
2020/12/25 10:33:31;;;;;;;3.95;1.55;;;;;;;5.10;100.00;103739.47;5093295;28;20431;-64
2020/12/25 10:35:57;;;;;;;5.72;1.52;;;;;;;5.13;100.00;103744.59;5093212;28;20058;-64
2020/12/25 10:38:23;;;;;;;9.10;1.77;;;;;;;5.15;100.00;103747.19;5093092;28;20032;-65
2020/12/25 10:40:48;;;;;;;4.05;1.27;;;;;;;5.17;100.00;103738.91;5092039;28;20482;-65
2020/12/25 10:43:14;;;;;;;4.03;2.20;;;;;;;5.19;100.00;103739.63;5091712;28;20509;-65
2020/12/25 10:45:39;;;;;;;7.15;1.90;;;;;;;5.21;100.00;103734.97;5093069;28;20123;-65
2020/12/25 10:48:05;;;;;;;3.83;2.10;;;;;;;5.25;100.00;103741.81;5092907;28;20374;-65
2020/12/25 10:50:31;;;;;;;8.80;1.73;;;;;;;5.28;100.00;103738.84;5093240;28;20165;-66
2020/12/25 10:52:56;;;;;;;7.75;2.40;;;;;;;5.33;100.00;103739.28;5092832;28;20062;-65
2020/12/25 10:55:22;;;;;;;9.40;2.72;;;;;;;5.35;100.00;103748.13;5092956;28;20482;-64
2020/12/25 10:57:47;;;;;;;7.68;3.67;;;;;;;5.40;100.00;103733.19;5092753;28;20389;-65
2020/12/25 11:00:13;;;;;;;8.60;3.47;;;;;;;5.44;100.00;103745.47;5092812;28;20414;-65
2020/12/25 11:02:38;;;;;;;7.55;3.05;;;;;;;5.45;100.00;103738.19;5092640;28;20036;-65
2020/12/25 11:05:05;;;;;;;3.80;2.10;;;;;;;5.45;100.00;103732.75;5092759;28;20097;-66
2020/12/25 11:07:30;;;;;;;7.22;2.50;;;;;;;5.46;100.00;103729.06;5092762;28;20032;-65
2020/12/25 11:09:56;;;;;;;7.43;2.08;;;;;;;5.48;100.00;103720.78;5092546;28;20064;-65
2020/12/25 11:12:21;;;;;;;5.78;2.28;;;;;;;5.49;100.00;103720.63;5091726;28;20047;-65
2020/12/25 11:14:47;;;;;;;8.07;2.00;;;;;;;5.52;100.00;103720.34;5092504;28;20508;-65
2020/12/25 11:17:15;;;;;;;8.38;2.25;;;;;;;5.56;100.00;103729.09;5092281;28;20127;-65
2020/12/25 11:19:42;;;;;;;6.20;2.40;;;;;;;5.59;100.00;103724.25;5092402;28;20040;-64
2020/12/25 11:22:13;;;;;;;8.13;2.15;;;;;;;5.61;100.00;103722.25;5092536;28;20140;-64
2020/12/25 11:24:43;;;;;;;5.78;1.85;;;;;;;5.63;100.00;103713.97;5092207;28;20036;-65